

Wyoming Mesonet
Water Resources Data System and State Climate Office
SEO WACNet, UW USACE UMRB, USDA-ARS, BLM
| Wind | Soil | |||||||||||||||||||
| Temp | Precip | Speed | Dir | Gust | Dir | Humidity | Pressure | Solar | Snow | Temperature (Deg F) | Moisture (%) | |||||||||
| Date Time (MST) | (F) | (in) | (mph) | (deg) | (mph) | (deg) | (%) | (Mbars) | (w/m^2) | (in) | 5cm | 10cm | 20cm | 50cm | 1m | 5cm | 10cm | 20cm | 50cm | 1m |
| 2026-08-30 00:00:00 | 62.37 | 0.00 | 4.18 | 284 | 7.33 | 250 | 82.9 | 866.0 | 0.0 | 0.0 | 75.38 | 79.34 | 78.26 | 74.48 | 72.14 | 8.6% | 13.6% | 21.3% | 23.8% | 13.1% |
| 2026-08-30 01:00:00 | 62.89 | 0.00 | 8.84 | 258 | 14.29 | 248 | 66.3 | 866.0 | 0.0 | 0.0 | 74.12 | 78.44 | 78.08 | 74.66 | 72.14 | 8.5% | 13.5% | 21.3% | 23.6% | 13.1% |
| 2026-08-30 02:00:00 | 61.43 | 0.00 | 6.30 | 266 | 12.92 | 287 | 71.5 | 866.0 | 0.0 | 0.0 | 72.86 | 77.54 | 77.90 | 74.66 | 72.14 | 8.2% | 13.4% | 21.3% | 23.8% | 13.1% |
| 2026-08-30 03:00:00 | 61.61 | 0.00 | 6.32 | 260 | 13.42 | 250 | 71.7 | 866.0 | 0.0 | 0.0 | 71.60 | 76.82 | 77.72 | 74.66 | 72.14 | 8.2% | 13.3% | 21.4% | 23.7% | 13.1% |
| 2026-08-30 04:00:00 | 60.78 | 0.00 | 2.94 | 298 | 9.32 | 270 | 74.7 | 866.0 | 0.0 | 0.0 | 70.70 | 75.92 | 77.36 | 74.84 | 72.14 | 8.0% | 13.4% | 21.3% | 23.7% | 13.1% |
| 2026-08-30 05:00:00 | 58.21 | 0.00 | 0.51 | 145 | 5.59 | 77 | 85.6 | 866.0 | 0.0 | 0.0 | 70.16 | 75.20 | 77.18 | 74.84 | 72.14 | 8.0% | 13.3% | 21.3% | 23.8% | 13.2% |
| 2026-08-30 06:00:00 | 58.50 | 0.00 | 0.13 | 261 | 1.86 | 212 | 86.7 | 867.0 | 65.1 | 0.0 | 69.44 | 74.66 | 76.64 | 74.66 | 72.14 | 7.9% | 13.2% | 21.2% | 23.7% | 13.2% |
| 2026-08-30 07:00:00 | 66.94 | 0.00 | 3.79 | 274 | 8.20 | 268 | 61.9 | 867.0 | 341.1 | 0.0 | 69.08 | 73.94 | 76.46 | 74.66 | 72.32 | 7.8% | 13.1% | 21.3% | 23.7% | 13.0% |
| 2026-08-30 08:00:00 | 68.02 | 0.00 | 6.92 | 245 | 11.05 | 256 | 59.9 | 867.0 | 184.5 | 0.0 | 69.80 | 73.58 | 76.10 | 74.66 | 72.32 | 7.8% | 13.2% | 21.4% | 23.7% | 13.1% |
| 2026-08-30 09:00:00 | 73.81 | 0.00 | 0.99 | 310 | 11.43 | 242 | 46.3 | 867.0 | 593.6 | 0.0 | 70.70 | 73.40 | 75.74 | 74.66 | 72.32 | 8.0% | 13.1% | 21.2% | 23.9% | 13.2% |
| 2026-08-30 10:00:00 | 79.14 | 0.00 | 4.96 | 192 | 11.93 | 175 | 39.1 | 867.0 | 705.7 | 0.0 | 72.86 | 73.58 | 75.38 | 74.66 | 72.14 | 8.2% | 13.0% | 21.2% | 23.7% | 13.1% |
| 2026-08-30 11:00:00 | 82.60 | 0.00 | 7.23 | 193 | 15.78 | 209 | 31.9 | 866.0 | 824.0 | 0.0 | 75.92 | 74.12 | 75.20 | 74.66 | 72.32 | 8.4% | 13.0% | 21.3% | 23.7% | 13.1% |
| 2026-08-30 12:00:00 | 85.33 | 0.00 | 15.69 | 240 | 25.10 | 226 | 20.1 | 866.0 | 811.0 | 0.0 | 79.34 | 74.84 | 75.02 | 74.48 | 72.14 | 8.8% | 13.2% | 21.2% | 23.7% | 13.1% |
| 2026-08-30 13:00:00 | 83.52 | 0.00 | 15.58 | 245 | 28.70 | 253 | 20.5 | 866.0 | 318.4 | 0.0 | 82.40 | 75.92 | 74.84 | 74.48 | 72.32 | 9.1% | 13.3% | 21.3% | 23.7% | 13.1% |
| 2026-08-30 14:00:00 | 66.69 | 0.03 | 30.53 | 321 | 45.10 | 309 | 67.9 | 867.0 | 569.6 | 0.0 | 82.94 | 77.18 | 75.02 | 74.48 | 72.32 | 9.1% | 13.3% | 21.2% | 23.7% | 13.1% |
| 2026-08-30 15:00:00 | 62.64 | 0.00 | 19.51 | 330 | 38.25 | 331 | 66.0 | 868.0 | 258.8 | 0.0 | 81.14 | 77.90 | 75.02 | 74.30 | 72.32 | 9.1% | 13.5% | 21.3% | 23.8% | 13.1% |
| 2026-08-30 16:00:00 | 65.01 | 0.00 | 17.45 | 25 | 28.57 | 12 | 59.0 | 869.0 | 480.3 | 0.0 | 79.34 | 78.08 | 75.20 | 74.30 | 72.14 | 8.8% | 13.4% | 21.3% | 23.7% | 13.1% |
| 2026-08-30 17:00:00 | 66.63 | 0.00 | 9.80 | 42 | 23.49 | 33 | 52.7 | 868.0 | 265.4 | 0.0 | 78.26 | 77.90 | 75.38 | 74.12 | 72.32 | 8.8% | 13.4% | 21.2% | 23.7% | 13.0% |
| 2026-08-30 18:00:00 | 65.52 | 0.00 | 6.57 | 67 | 12.67 | 68 | 53.3 | 868.0 | 98.3 | 0.0 | 77.18 | 77.54 | 75.38 | 74.12 | 72.32 | 8.7% | 13.4% | 21.3% | 23.6% | 13.1% |
| 2026-08-30 19:00:00 | 59.76 | 0.00 | 5.09 | 50 | 7.58 | 60 | 66.5 | 868.0 | 0.0 | 0.0 | 75.74 | 77.18 | 75.56 | 74.12 | 72.14 | 8.5% | 13.4% | 21.3% | 23.7% | 13.1% |
| 2026-08-30 20:00:00 | 56.37 | 0.00 | 1.45 | 128 | 6.96 | 44 | 78.1 | 869.0 | 0.0 | 0.0 | 73.94 | 76.64 | 75.56 | 74.12 | 72.14 | 8.4% | 13.3% | 21.2% | 23.7% | 13.1% |
| 2026-08-30 21:00:00 | 52.65 | 0.00 | 2.67 | 352 | 3.98 | 317 | 84.0 | 869.0 | 0.0 | 0.0 | 72.32 | 75.92 | 75.56 | 74.12 | 72.14 | 8.1% | 13.1% | 21.3% | 23.7% | 13.1% |
| 2026-08-30 22:00:00 | 51.82 | 0.00 | 1.15 | 291 | 4.85 | 244 | 83.7 | 869.0 | 0.0 | 0.0 | 70.52 | 75.20 | 75.56 | 73.94 | 72.14 | 8.0% | 13.2% | 21.4% | 23.7% | 13.1% |
| 2026-08-30 23:00:00 | 49.62 | 0.00 | 0.13 | 342 | 2.98 | 340 | 89.4 | 870.0 | 0.0 | 0.0 | 69.08 | 74.48 | 75.38 | 73.94 | 72.14 | 7.7% | 13.1% | 21.4% | 23.7% | 13.0% |